Stanberry, Missouri
Current Conditions -  °F | °C
As of 4:53 PM on Wednesday 26 Nov 2014 (Local Time) from KSTJ Reporting Station
Overcast Overcast  
Wind Chill: 20°   Ceiling: 2000
Heat Index: 32°   Visibility: 10mi
Dew Point: 24°   Wind: 21mph
Humidity: 73%   Direction: 330°NNW
Pressure: 30.21"   Gusts: NA
Location:  40.22°N, 94.54°W
Report Text: KSTJ 262253Z AUTO 33018KT 10SM OVC020 00/M04 A3021 RMK AO2 PK WND 34032/2236 SLP237 T00001044
Loading
Personal Weather Stations






























Interactive Weather Map New forecast layout! Learn more

10-Day Weather Forecast

Advertisements
Track Severe Weather on mobile